Atlantic Legend — 3FPJ7 — position and weather

sailwx.info

Track history (hours):
 
Tides and Currents Weather Stations Pressure Air Temp Water Temp Dewpoint Dewpoint Depression Visibility Wind Speed Wind Dir Waves Ship Positions

Atlantic Legend

Last reported at 2018-Jun-13 00:48 UTC. Time now 2018-Jun-18 21:06 UTC.
Position S 34°45' E 017°57'.

Length 229 m; draft 7.6 m.

Type: Other ship. MMSI: 351538000.

Date/timePositionNaut miles runAvg speedWind from/ knotsBaromVisibWave heightAir tempDewpointWater temp
2018-Jun-13 00:48S 34°45' E 017°57'1313.7
2018-Jun-12 23:53S 34°48' E 018°12'513.4
2018-Jun-12 23:30S 34°49' E 018°18'612.8
2018-Jun-12 23:00S 34°50' E 018°25'813.1
2018-Jun-12 22:25S 34°51' E 018°35'513.1
2018-Jun-12 22:00S 34°52' E 018°41'713.2
2018-Jun-12 21:30S 34°53' E 018°49'613.0
2018-Jun-12 21:00S 34°54' E 018°57'713.2
2018-Jun-12 20:29S 34°55' E 019°05'  
2018-Jun-10 15:04S 30°24' E 030°60'112.2
2018-Jun-10 15:00S 30°24' E 030°60'1313.0
2018-Jun-10 14:00S 30°12' E 031°06'713.2
2018-Jun-10 13:30S 30°06' E 031°09'612.7
2018-Jun-10 13:00S 29°60' E 031°12'612.3
2018-Jun-10 12:30S 29°54' E 031°11'510.7
2018-Jun-10 12:00S 29°50' E 031°07'4 8.6
2018-Jun-10 11:30S 29°52' E 031°03'1 1.8
2018-Jun-10 10:59S 29°52' E 031°02'0 0.0
2018-Jun-10 10:29S 29°52' E 031°02'0 0.0
2018-Jun-10 09:59S 29°52' E 031°02'0 0.0
2018-Jun-10 09:29S 29°52' E 031°02'0 0.0
2018-Jun-10 08:59S 29°52' E 031°02'0 0.0
2018-Jun-10 08:29S 29°52' E 031°02'0 0.0
2018-Jun-10 07:59S 29°52' E 031°02'0 0.0
2018-Jun-10 07:29S 29°52' E 031°02'0 0.0
2018-Jun-10 06:59S 29°52' E 031°02'0 0.0
2018-Jun-10 06:29S 29°52' E 031°02'0 0.0
2018-Jun-10 05:59S 29°52' E 031°02'0 0.0
2018-Jun-10 05:29S 29°52' E 031°02'0 0.0
2018-Jun-10 04:59S 29°52' E 031°02'0 0.0
2018-Jun-10 04:29S 29°52' E 031°02'0 0.0
2018-Jun-10 03:59S 29°52' E 031°02'0 0.0
2018-Jun-10 03:29S 29°52' E 031°02'0 0.0
2018-Jun-10 02:59S 29°52' E 031°02'0 0.0
2018-Jun-10 02:29S 29°52' E 031°02'0 0.0
2018-Jun-10 01:59S 29°52' E 031°02'0 0.0
2018-Jun-10 01:29S 29°52' E 031°02'0 0.0
2018-Jun-10 00:53S 29°52' E 031°02'0 0.0
2018-Jun-10 00:29S 29°52' E 031°02'0 0.0
2018-Jun-09 23:59S 29°52' E 031°02'0 0.0
2018-Jun-09 23:29S 29°52' E 031°02'0 0.0
2018-Jun-09 22:59S 29°52' E 031°02'0 0.0
2018-Jun-09 22:29S 29°52' E 031°02'0 0.0
2018-Jun-09 21:59S 29°52' E 031°02'0 0.2
2018-Jun-09 21:30S 29°52' E 031°02'2 4.6
2018-Jun-09 21:00S 29°51' E 031°04'3 6.2
2018-Jun-09 20:30S 29°49' E 031°07'1 2.0
2018-Jun-09 20:00S 29°48' E 031°08'0 0.5
2018-Jun-09 19:30S 29°48' E 031°08'1 3.0
2018-Jun-09 19:00S 29°47' E 031°09'1 2.6
2018-Jun-09 18:30S 29°46' E 031°10'1 2.0
2018-Jun-09 17:58S 29°45' E 031°11'0 0.1
2018-Jun-09 17:28S 29°45' E 031°11'0 0.0
2018-Jun-09 16:58S 29°45' E 031°11'0 0.0
2018-Jun-09 16:28S 29°45' E 031°11'0 0.0
2018-Jun-09 15:58S 29°45' E 031°11'0 0.1
2018-Jun-09 14:58S 29°45' E 031°11'1 1.9
2018-Jun-09 14:30S 29°45' E 031°12'3 6.7
2018-Jun-09 14:00S 29°47' E 031°15'3 6.1
2018-Jun-09 13:31S 29°48' E 031°18'5 9.8
2018-Jun-09 13:01S 29°47' E 031°24'3 6.0
2018-Jun-09 12:31S 29°46' E 031°27'611.8
2018-Jun-09 12:00S 29°44' E 031°34'612.2
2018-Jun-09 11:30S 29°43' E 031°41'612.1
2018-Jun-09 11:00S 29°41' E 031°47'714.2
2018-Jun-09 10:30S 29°39' E 031°55'714.7
2018-Jun-09 10:00S 29°38' E 032°03'714.3
2018-Jun-09 09:30S 29°36' E 032°11'714.1
2018-Jun-09 09:01S 29°34' E 032°19'714.0
2018-Jun-09 08:30S 29°32' E 032°27'713.8
2018-Jun-09 08:00S 29°30' E 032°34'713.6
2018-Jun-09 07:30S 29°28' E 032°42'713.5
2018-Jun-09 07:00S 29°27' E 032°49'713.2
2018-Jun-09 06:30S 29°25' E 032°57'613.0
2018-Jun-09 06:00S 29°23' E 033°04'713.1
2018-Jun-09 05:30S 29°22' E 033°11'713.2
2018-Jun-09 04:57S 29°20' E 033°19'613.3
2018-Jun-09 04:30S 29°18' E 033°26'713.2
2018-Jun-09 04:00S 29°16' E 033°33'813.3
2018-Jun-09 03:26S 29°14' E 033°42'613.5
2018-Jun-09 03:00S 29°13' E 033°48'713.5
2018-Jun-09 02:29S 29°11' E 033°56'613.4
2018-Jun-09 02:00S 29°09' E 034°03'713.3
2018-Jun-09 01:30S 29°07' E 034°10'612.9
2018-Jun-09 01:00S 29°06' E 034°17'612.8
2018-Jun-09 00:30S 29°04' E 034°24'  
Track history (hours):
 
Tides and Currents Weather Stations Pressure Air Temp Water Temp Dewpoint Dewpoint Depression Visibility Wind Speed Wind Dir Waves Ship Positions

Atlantic Legend

Last reported at 2018-Jun-13 00:48 UTC. Time now 2018-Jun-18 21:06 UTC.
Position S 34°45' E 017°57'.

Length 229 m; draft 7.6 m.

Type: Other ship. MMSI: 351538000.

Date/timePositionNaut miles runAvg speedWind from/ knotsBaromVisibWave heightAir tempDewpointWater temp
2018-Jun-13 00:48S 34°45' E 017°57'1313.7
2018-Jun-12 23:53S 34°48' E 018°12'513.4
2018-Jun-12 23:30S 34°49' E 018°18'612.8
2018-Jun-12 23:00S 34°50' E 018°25'813.1
2018-Jun-12 22:25S 34°51' E 018°35'513.1
2018-Jun-12 22:00S 34°52' E 018°41'713.2
2018-Jun-12 21:30S 34°53' E 018°49'613.0
2018-Jun-12 21:00S 34°54' E 018°57'713.2
2018-Jun-12 20:29S 34°55' E 019°05'  
2018-Jun-10 15:04S 30°24' E 030°60'112.2
2018-Jun-10 15:00S 30°24' E 030°60'1313.0
2018-Jun-10 14:00S 30°12' E 031°06'713.2
2018-Jun-10 13:30S 30°06' E 031°09'612.7
2018-Jun-10 13:00S 29°60' E 031°12'612.3
2018-Jun-10 12:30S 29°54' E 031°11'510.7
2018-Jun-10 12:00S 29°50' E 031°07'4 8.6
2018-Jun-10 11:30S 29°52' E 031°03'1 1.8
2018-Jun-10 10:59S 29°52' E 031°02'0 0.0
2018-Jun-10 10:29S 29°52' E 031°02'0 0.0
2018-Jun-10 09:59S 29°52' E 031°02'0 0.0
2018-Jun-10 09:29S 29°52' E 031°02'0 0.0
2018-Jun-10 08:59S 29°52' E 031°02'0 0.0
2018-Jun-10 08:29S 29°52' E 031°02'0 0.0
2018-Jun-10 07:59S 29°52' E 031°02'0 0.0
2018-Jun-10 07:29S 29°52' E 031°02'0 0.0
2018-Jun-10 06:59S 29°52' E 031°02'0 0.0
2018-Jun-10 06:29S 29°52' E 031°02'0 0.0
2018-Jun-10 05:59S 29°52' E 031°02'0 0.0
2018-Jun-10 05:29S 29°52' E 031°02'0 0.0
2018-Jun-10 04:59S 29°52' E 031°02'0 0.0
2018-Jun-10 04:29S 29°52' E 031°02'0 0.0
2018-Jun-10 03:59S 29°52' E 031°02'0 0.0
2018-Jun-10 03:29S 29°52' E 031°02'0 0.0
2018-Jun-10 02:59S 29°52' E 031°02'0 0.0
2018-Jun-10 02:29S 29°52' E 031°02'0 0.0
2018-Jun-10 01:59S 29°52' E 031°02'0 0.0
2018-Jun-10 01:29S 29°52' E 031°02'0 0.0
2018-Jun-10 00:53S 29°52' E 031°02'0 0.0
2018-Jun-10 00:29S 29°52' E 031°02'0 0.0
2018-Jun-09 23:59S 29°52' E 031°02'0 0.0
2018-Jun-09 23:29S 29°52' E 031°02'0 0.0
2018-Jun-09 22:59S 29°52' E 031°02'0 0.0
2018-Jun-09 22:29S 29°52' E 031°02'0 0.0
2018-Jun-09 21:59S 29°52' E 031°02'0 0.2
2018-Jun-09 21:30S 29°52' E 031°02'2 4.6
2018-Jun-09 21:00S 29°51' E 031°04'3 6.2
2018-Jun-09 20:30S 29°49' E 031°07'1 2.0
2018-Jun-09 20:00S 29°48' E 031°08'0 0.5
2018-Jun-09 19:30S 29°48' E 031°08'1 3.0
2018-Jun-09 19:00S 29°47' E 031°09'1 2.6
2018-Jun-09 18:30S 29°46' E 031°10'1 2.0
2018-Jun-09 17:58S 29°45' E 031°11'0 0.1
2018-Jun-09 17:28S 29°45' E 031°11'0 0.0
2018-Jun-09 16:58S 29°45' E 031°11'0 0.0
2018-Jun-09 16:28S 29°45' E 031°11'0 0.0
2018-Jun-09 15:58S 29°45' E 031°11'0 0.1
2018-Jun-09 14:58S 29°45' E 031°11'1 1.9
2018-Jun-09 14:30S 29°45' E 031°12'3 6.7
2018-Jun-09 14:00S 29°47' E 031°15'3 6.1
2018-Jun-09 13:31S 29°48' E 031°18'5 9.8
2018-Jun-09 13:01S 29°47' E 031°24'3 6.0
2018-Jun-09 12:31S 29°46' E 031°27'611.8
2018-Jun-09 12:00S 29°44' E 031°34'612.2
2018-Jun-09 11:30S 29°43' E 031°41'612.1
2018-Jun-09 11:00S 29°41' E 031°47'714.2
2018-Jun-09 10:30S 29°39' E 031°55'714.7
2018-Jun-09 10:00S 29°38' E 032°03'714.3
2018-Jun-09 09:30S 29°36' E 032°11'714.1
2018-Jun-09 09:01S 29°34' E 032°19'714.0
2018-Jun-09 08:30S 29°32' E 032°27'713.8
2018-Jun-09 08:00S 29°30' E 032°34'713.6
2018-Jun-09 07:30S 29°28' E 032°42'713.5
2018-Jun-09 07:00S 29°27' E 032°49'713.2
2018-Jun-09 06:30S 29°25' E 032°57'613.0
2018-Jun-09 06:00S 29°23' E 033°04'713.1
2018-Jun-09 05:30S 29°22' E 033°11'713.2
2018-Jun-09 04:57S 29°20' E 033°19'613.3
2018-Jun-09 04:30S 29°18' E 033°26'713.2
2018-Jun-09 04:00S 29°16' E 033°33'813.3
2018-Jun-09 03:26S 29°14' E 033°42'613.5
2018-Jun-09 03:00S 29°13' E 033°48'713.5
2018-Jun-09 02:29S 29°11' E 033°56'613.4
2018-Jun-09 02:00S 29°09' E 034°03'713.3
2018-Jun-09 01:30S 29°07' E 034°10'612.9
2018-Jun-09 01:00S 29°06' E 034°17'612.8
2018-Jun-09 00:30S 29°04' E 034°24'  

Dump ship's entire track history